Time;durP1;ratioP1;P1;durP2;ratioP2;P2;SDS_P1;SDS_P2;PMS_P1;PMS_P2;Temp;Humidity;BMP_temperature;BMP_pressure;BME280_temperature;BME280_humidity;BME280_pressure;Samples;Min_cycle;Max_cycle;Signal;HPM_P1;HPM_P2
2021/05/17 00:02:01;;;;;;;7.78;4.05;;;9.50;99.90;;;;;;5098001;28;20522;-67
2021/05/17 00:04:35;;;;;;;6.38;3.80;;;9.60;99.90;;;;;;5102700;28;20146;-67
2021/05/17 00:07:04;;;;;;;6.00;3.85;;;9.60;99.90;;;;;;5076310;28;20046;-67
2021/05/17 00:09:30;;;;;;;6.90;4.45;;;9.60;99.90;;;;;;5102990;28;20094;-67
2021/05/17 00:11:56;;;;;;;6.00;4.05;;;9.60;99.90;;;;;;5099953;28;20496;-67
2021/05/17 00:14:24;;;;;;;5.30;4.28;;;9.70;99.90;;;;;;5102582;28;20039;-67
2021/05/17 00:16:52;;;;;;;5.82;4.40;;;9.70;99.90;;;;;;5099290;28;20484;-67
2021/05/17 00:19:17;;;;;;;7.70;4.70;;;9.70;99.90;;;;;;5102604;28;20471;-68
2021/05/17 00:21:44;;;;;;;6.03;4.25;;;9.70;99.90;;;;;;5097022;28;20040;-68
2021/05/17 00:24:12;;;;;;;8.02;4.55;;;9.80;99.90;;;;;;5103047;28;20502;-68
2021/05/17 00:26:38;;;;;;;9.43;4.68;;;9.70;99.90;;;;;;5102053;28;20408;-68
2021/05/17 00:29:05;;;;;;;8.60;5.10;;;9.70;99.90;;;;;;5095362;28;20122;-68
2021/05/17 00:31:32;;;;;;;6.65;5.28;;;9.70;99.90;;;;;;5104514;28;20028;-68
2021/05/17 00:33:58;;;;;;;8.80;4.88;;;9.80;99.90;;;;;;5095685;28;20044;-68
2021/05/17 00:36:24;;;;;;;6.85;5.18;;;9.80;99.90;;;;;;5105853;28;20036;-68
2021/05/17 00:38:50;;;;;;;8.73;4.80;;;9.80;99.90;;;;;;5094749;28;20083;-68
2021/05/17 00:41:16;;;;;;;8.23;5.30;;;9.80;99.90;;;;;;5102107;28;20040;-68
2021/05/17 00:43:42;;;;;;;10.93;4.93;;;9.80;99.90;;;;;;5098434;28;20104;-67
2021/05/17 00:46:10;;;;;;;11.82;5.40;;;9.80;99.90;;;;;;5103513;28;20423;-67
2021/05/17 00:48:37;;;;;;;8.50;4.90;;;9.70;99.90;;;;;;5096363;28;20097;-68
2021/05/17 00:51:07;;;;;;;6.65;4.40;;;9.70;99.90;;;;;;5104831;28;20043;-68
2021/05/17 00:53:35;;;;;;;6.60;4.47;;;9.70;99.90;;;;;;5098797;28;20072;-68
2021/05/17 00:56:01;;;;;;;8.73;5.03;;;9.70;99.90;;;;;;5101548;28;20448;-68
2021/05/17 00:58:27;;;;;;;8.65;4.90;;;9.60;99.90;;;;;;5095851;28;20032;-68
2021/05/17 01:00:53;;;;;;;10.93;5.53;;;9.50;99.90;;;;;;5102100;28;20120;-67
2021/05/17 01:03:19;;;;;;;8.45;5.65;;;9.50;99.90;;;;;;5096954;28;20136;-67
2021/05/17 01:05:45;;;;;;;10.02;4.50;;;9.50;99.90;;;;;;5102098;28;20501;-67
2021/05/17 01:08:25;;;;;;;6.75;4.97;;;9.50;99.90;;;;;;5105376;28;20039;-67
2021/05/17 01:10:54;;;;;;;8.75;6.53;;;9.40;99.90;;;;;;5066296;28;20071;-67
2021/05/17 01:13:20;;;;;;;8.98;6.03;;;9.40;99.90;;;;;;5065772;28;20049;-67
2021/05/17 01:15:51;;;;;;;9.13;6.38;;;9.30;99.90;;;;;;5058603;28;20033;-68
2021/05/17 01:18:17;;;;;;;6.72;5.32;;;9.30;99.90;;;;;;5058279;28;20044;-67
2021/05/17 01:20:48;;;;;;;5.82;5.22;;;9.20;99.90;;;;;;5056201;28;20035;-67
2021/05/17 01:25:54;;;;;;;6.35;5.45;;;9.30;99.90;;;;;;5054762;28;20086;-68
2021/05/17 01:28:23;;;;;;;7.60;6.13;;;9.20;99.90;;;;;;5064741;28;20044;-68
2021/05/17 01:30:51;;;;;;;11.50;6.55;;;9.20;99.90;;;;;;5054275;28;20488;-68
2021/05/17 01:33:17;;;;;;;11.93;7.70;;;9.30;99.90;;;;;;5066076;28;20113;-67
2021/05/17 01:35:48;;;;;;;9.88;6.72;;;9.30;99.90;;;;;;5050608;28;20656;-67
2021/05/17 01:38:15;;;;;;;11.05;7.28;;;9.30;99.90;;;;;;5061402;28;20116;-67
2021/05/17 01:40:46;;;;;;;12.73;7.40;;;9.30;99.90;;;;;;5054528;28;20036;-66
2021/05/17 01:43:14;;;;;;;12.77;7.15;;;9.30;99.90;;;;;;5061596;28;20037;-67
2021/05/17 01:45:42;;;;;;;11.30;6.97;;;9.40;99.90;;;;;;5056776;28;20037;-68
2021/05/17 01:48:08;;;;;;;11.68;6.72;;;9.30;99.90;;;;;;5063098;28;20234;-68
2021/05/17 01:50:36;;;;;;;10.07;7.15;;;9.30;99.90;;;;;;5053777;28;20131;-68
2021/05/17 01:53:03;;;;;;;10.82;7.28;;;9.30;99.90;;;;;;5064714;28;20094;-68
2021/05/17 01:55:29;;;;;;;13.45;8.15;;;9.30;99.90;;;;;;5052831;28;20123;-67
2021/05/17 01:58:22;;;;;;;15.00;9.27;;;9.30;99.90;;;;;;5061625;28;20408;-67
2021/05/17 02:00:49;;;;;;;12.20;9.05;;;9.40;99.90;;;;;;5052422;28;20047;-67
2021/05/17 02:03:15;;;;;;;11.68;8.25;;;9.40;99.90;;;;;;5065744;28;20548;-67
2021/05/17 02:05:41;;;;;;;15.63;9.38;;;9.40;99.90;;;;;;5059075;28;20408;-67
2021/05/17 02:08:11;;;;;;;18.63;10.50;;;9.40;99.90;;;;;;5063179;28;20063;-67
2021/05/17 02:10:40;;;;;;;14.70;9.10;;;9.40;99.90;;;;;;5100809;28;20513;-67
2021/05/17 02:13:08;;;;;;;12.38;9.65;;;9.40;99.90;;;;;;5095484;28;20048;-67
2021/05/17 02:15:36;;;;;;;11.18;8.65;;;9.40;99.90;;;;;;5103456;28;20039;-67
2021/05/17 02:18:03;;;;;;;13.70;8.80;;;9.50;99.90;;;;;;5097328;28;20096;-67
2021/05/17 02:20:32;;;;;;;16.02;10.38;;;9.50;99.90;;;;;;5100648;28;20401;-67
2021/05/17 02:22:58;;;;;;;24.27;11.10;;;9.50;99.90;;;;;;5093142;28;20049;-67
2021/05/17 02:25:26;;;;;;;19.70;10.30;;;9.50;99.90;;;;;;5103684;28;20052;-67
2021/05/17 02:27:52;;;;;;;13.00;10.20;;;9.50;99.90;;;;;;5096600;28;20047;-67
2021/05/17 02:30:18;;;;;;;13.07;9.65;;;9.50;99.90;;;;;;5104811;28;20063;-67
2021/05/17 02:32:44;;;;;;;15.45;11.20;;;9.60;99.90;;;;;;5096897;28;20040;-67
2021/05/17 02:35:11;;;;;;;16.70;10.68;;;9.50;99.90;;;;;;5102938;28;20097;-67
2021/05/17 02:37:37;;;;;;;14.80;11.15;;;9.50;99.90;;;;;;5096459;28;20340;-67
2021/05/17 02:40:04;;;;;;;16.83;11.13;;;9.50;99.90;;;;;;5098616;28;20529;-67
2021/05/17 02:42:34;;;;;;;15.43;10.27;;;9.60;99.90;;;;;;5095905;28;20039;-67
2021/05/17 02:45:02;;;;;;;14.90;9.90;;;9.60;99.90;;;;;;5105595;28;20483;-67
2021/05/17 02:47:35;;;;;;;15.75;11.00;;;9.60;99.90;;;;;;5095791;28;20410;-67
2021/05/17 02:50:01;;;;;;;13.10;9.77;;;9.50;99.90;;;;;;5099441;28;20034;-67
2021/05/17 02:52:34;;;;;;;16.60;11.60;;;9.50;99.90;;;;;;5100873;28;20055;-67
2021/05/17 02:55:07;;;;;;;14.35;10.80;;;9.50;99.90;;;;;;5105116;28;20044;-67
2021/05/17 02:57:46;;;;;;;16.88;11.55;;;9.60;99.90;;;;;;5098785;28;20058;-67
2021/05/17 03:00:13;;;;;;;14.90;11.57;;;9.50;99.90;;;;;;5107297;28;20085;-67
2021/05/17 03:03:03;;;;;;;19.52;12.18;;;9.50;99.90;;;;;;5107174;28;20027;-67
2021/05/17 03:05:33;;;;;;;17.67;12.18;;;9.50;99.90;;;;;;5107132;28;20036;-67
2021/05/17 03:08:02;;;;;;;14.52;11.48;;;9.50;99.90;;;;;;5095762;28;20042;-67
2021/05/17 03:10:30;;;;;;;16.17;11.70;;;9.60;99.90;;;;;;5102477;28;20036;-67
2021/05/17 03:13:00;;;;;;;18.42;12.80;;;9.50;99.90;;;;;;5106155;28;20479;-67
2021/05/17 03:15:26;;;;;;;18.85;12.80;;;9.60;99.90;;;;;;5100404;28;20054;-67
2021/05/17 03:17:56;;;;;;;16.55;12.80;;;9.60;99.90;;;;;;5106387;28;20043;-67
2021/05/17 03:20:23;;;;;;;22.60;13.32;;;9.60;99.90;;;;;;5094704;28;20024;-67
2021/05/17 03:22:50;;;;;;;16.35;12.75;;;9.60;99.90;;;;;;5088758;28;20048;-67
2021/05/17 03:25:19;;;;;;;16.98;12.32;;;9.60;99.90;;;;;;5098235;28;20069;-67
2021/05/17 03:27:45;;;;;;;15.43;12.02;;;9.60;99.90;;;;;;5104443;28;20036;-67
2021/05/17 03:30:12;;;;;;;17.65;13.23;;;9.50;99.90;;;;;;5096665;28;20040;-67
2021/05/17 03:32:38;;;;;;;18.20;12.82;;;9.60;99.90;;;;;;5106086;28;20522;-67
2021/05/17 03:35:04;;;;;;;20.85;13.75;;;9.60;99.90;;;;;;5098652;28;20042;-67
2021/05/17 03:37:30;;;;;;;20.60;13.70;;;9.60;99.90;;;;;;5103963;28;20044;-67
2021/05/17 03:39:58;;;;;;;17.63;13.07;;;9.60;99.90;;;;;;5099785;28;20040;-67
2021/05/17 03:42:27;;;;;;;17.67;12.50;;;9.60;99.90;;;;;;5106261;28;20040;-67
2021/05/17 03:44:53;;;;;;;16.85;13.50;;;9.60;99.90;;;;;;5097243;28;20475;-67
2021/05/17 03:47:18;;;;;;;17.92;13.75;;;9.60;99.90;;;;;;5091848;28;20047;-67
2021/05/17 03:49:45;;;;;;;17.02;13.93;;;9.60;99.90;;;;;;5096504;28;20059;-67
2021/05/17 03:52:18;;;;;;;20.10;14.07;;;9.60;99.90;;;;;;5102378;28;20058;-67
2021/05/17 03:54:44;;;;;;;19.95;14.57;;;9.60;99.90;;;;;;5083701;28;20047;-67
2021/05/17 03:57:09;;;;;;;19.65;14.13;;;9.70;99.90;;;;;;5102453;28;20061;-67
2021/05/17 03:59:36;;;;;;;21.02;14.93;;;9.60;99.90;;;;;;5100570;28;20108;-67
2021/05/17 04:02:03;;;;;;;17.60;15.15;;;9.60;99.90;;;;;;5097620;28;20131;-67
2021/05/17 04:04:35;;;;;;;20.92;13.48;;;9.60;99.90;;;;;;5102936;28;20039;-67
2021/05/17 04:07:20;;;;;;;15.82;13.45;;;9.60;99.90;;;;;;5099635;28;20517;-67
2021/05/17 04:15:16;;;;;;;19.10;14.20;;;9.70;99.90;;;;;;5104683;28;20039;-67
2021/05/17 04:17:42;;;;;;;17.00;13.40;;;9.70;99.90;;;;;;5097852;28;20397;-67
2021/05/17 04:20:08;;;;;;;18.23;14.30;;;9.70;99.90;;;;;;5102672;28;20130;-67
2021/05/17 04:22:34;;;;;;;17.40;14.18;;;9.70;99.90;;;;;;5098220;28;20039;-67
2021/05/17 04:25:00;;;;;;;22.85;15.35;;;9.70;99.90;;;;;;5108437;28;20032;-67
2021/05/17 04:27:25;;;;;;;20.23;13.75;;;9.70;99.90;;;;;;5100315;28;20047;-67
2021/05/17 04:29:52;;;;;;;18.20;13.60;;;9.80;99.90;;;;;;5102184;28;20043;-67
2021/05/17 04:32:18;;;;;;;17.23;13.98;;;9.80;99.90;;;;;;5095548;28;20044;-67
2021/05/17 04:34:44;;;;;;;18.63;13.77;;;9.80;99.90;;;;;;5105978;28;20537;-67
2021/05/17 04:37:09;;;;;;;18.92;14.02;;;9.90;99.90;;;;;;5078688;28;20040;-67
2021/05/17 04:39:35;;;;;;;19.30;14.43;;;9.80;99.90;;;;;;5102878;28;20039;-67
2021/05/17 04:42:01;;;;;;;18.13;13.40;;;9.90;99.90;;;;;;5100860;28;20041;-67
2021/05/17 04:44:27;;;;;;;15.30;13.15;;;9.90;99.90;;;;;;5108251;28;20039;-67
2021/05/17 04:46:53;;;;;;;19.67;14.48;;;9.90;99.90;;;;;;5097481;28;20141;-67
2021/05/17 04:49:18;;;;;;;15.98;12.63;;;10.00;99.90;;;;;;5099986;28;20482;-67
2021/05/17 04:51:44;;;;;;;21.65;14.52;;;10.00;99.90;;;;;;5103966;28;20036;-67
2021/05/17 04:54:10;;;;;;;15.88;12.50;;;10.00;99.90;;;;;;5096954;28;20032;-67
2021/05/17 04:56:36;;;;;;;15.68;13.60;;;10.10;99.90;;;;;;5099915;28;20071;-67
2021/05/17 04:59:02;;;;;;;19.95;14.23;;;10.10;99.90;;;;;;5099640;28;20024;-67
2021/05/17 05:01:28;;;;;;;15.52;12.57;;;10.10;99.90;;;;;;5104765;28;20046;-67
2021/05/17 05:03:54;;;;;;;15.50;12.70;;;10.10;99.90;;;;;;5095749;28;20420;-67
2021/05/17 05:06:19;;;;;;;16.67;12.43;;;10.10;99.90;;;;;;5106122;28;20433;-67
2021/05/17 05:08:45;;;;;;;15.77;12.40;;;10.10;99.90;;;;;;5100842;28;20048;-68
2021/05/17 05:11:11;;;;;;;15.38;11.98;;;10.20;99.90;;;;;;5085120;28;20532;-68
2021/05/17 05:13:37;;;;;;;13.68;10.95;;;10.20;99.90;;;;;;5097047;28;20036;-68
2021/05/17 05:16:03;;;;;;;17.83;12.07;;;10.20;99.90;;;;;;5096172;28;20404;-68
2021/05/17 05:18:33;;;;;;;14.55;12.15;;;10.20;99.90;;;;;;5093509;28;20407;-67
2021/05/17 05:21:07;;;;;;;16.75;11.95;;;10.30;99.90;;;;;;5096663;28;20035;-67
2021/05/17 05:23:41;;;;;;;12.82;10.38;;;10.30;99.90;;;;;;5098504;28;20031;-67
2021/05/17 05:31:40;;;;;;;13.40;10.85;;;10.40;99.90;;;;;;5100732;28;20539;-68
2021/05/17 05:34:06;;;;;;;11.75;9.82;;;10.40;99.90;;;;;;5090262;28;20051;-68
2021/05/17 05:36:31;;;;;;;11.80;10.23;;;10.50;99.90;;;;;;5098905;28;20395;-68
2021/05/17 05:38:58;;;;;;;10.45;9.30;;;10.50;99.90;;;;;;5098417;28;20040;-68
2021/05/17 05:41:24;;;;;;;10.50;9.38;;;10.60;99.90;;;;;;5084457;28;20503;-68
2021/05/17 05:43:49;;;;;;;10.50;9.27;;;10.60;99.90;;;;;;5102498;28;20152;-68
2021/05/17 05:46:15;;;;;;;10.25;8.90;;;10.70;99.90;;;;;;5093976;28;20519;-67
2021/05/17 05:48:47;;;;;;;11.95;9.18;;;10.70;99.90;;;;;;5098269;28;20044;-67
2021/05/17 05:51:25;;;;;;;12.32;10.20;;;10.70;99.90;;;;;;5095647;28;20028;-67
2021/05/17 05:53:51;;;;;;;14.60;9.38;;;10.80;99.90;;;;;;5103803;28;20031;-67
2021/05/17 05:56:18;;;;;;;10.43;9.35;;;10.80;99.90;;;;;;5093173;28;20503;-67
2021/05/17 05:58:45;;;;;;;10.57;8.93;;;10.80;99.90;;;;;;5104715;28;20094;-67
2021/05/17 06:01:12;;;;;;;9.73;8.70;;;10.90;99.90;;;;;;5093443;28;20048;-67
2021/05/17 06:03:38;;;;;;;13.00;9.70;;;11.00;99.90;;;;;;5099600;28;20043;-67
2021/05/17 06:06:05;;;;;;;12.07;9.70;;;11.00;99.90;;;;;;5097046;28;20051;-67
2021/05/17 06:08:33;;;;;;;11.10;9.98;;;11.20;99.90;;;;;;5103525;28;20125;-67
2021/05/17 06:11:00;;;;;;;15.27;10.70;;;11.20;99.90;;;;;;5094833;28;20043;-67
2021/05/17 06:13:26;;;;;;;11.40;10.07;;;11.20;99.90;;;;;;5100237;28;20111;-67
2021/05/17 06:15:53;;;;;;;11.70;9.55;;;11.30;99.90;;;;;;5094189;28;20523;-67
2021/05/17 06:18:18;;;;;;;11.05;9.95;;;11.30;99.90;;;;;;5106980;28;20048;-67
2021/05/17 06:20:45;;;;;;;9.57;8.55;;;11.40;99.90;;;;;;5101119;28;22971;-66
2021/05/17 06:23:14;;;;;;;10.95;8.68;;;11.40;99.90;;;;;;5106751;28;20165;-67
2021/05/17 06:25:40;;;;;;;12.85;8.80;;;11.40;99.90;;;;;;5098952;28;20051;-67
2021/05/17 06:28:07;;;;;;;11.35;10.00;;;11.40;99.90;;;;;;5105221;28;20039;-66
2021/05/17 06:30:42;;;;;;;12.20;10.15;;;11.40;99.90;;;;;;5107084;28;20067;-66
2021/05/17 06:33:09;;;;;;;12.60;9.02;;;11.50;99.90;;;;;;5105354;28;20154;-66
2021/05/17 06:35:43;;;;;;;11.43;9.25;;;11.50;99.90;;;;;;5106948;28;20038;-66
2021/05/17 06:38:09;;;;;;;10.98;9.35;;;11.60;99.90;;;;;;5098808;28;20027;-66
2021/05/17 06:40:35;;;;;;;10.52;8.07;;;11.70;99.90;;;;;;5105837;28;20249;-66
2021/05/17 06:43:01;;;;;;;8.73;7.05;;;11.60;99.90;;;;;;5097648;28;20043;-66
2021/05/17 06:45:27;;;;;;;8.93;8.05;;;11.60;99.90;;;;;;5102271;28;20110;-66
2021/05/17 06:47:53;;;;;;;8.80;7.85;;;11.60;99.90;;;;;;5101648;28;20480;-66
2021/05/17 06:50:20;;;;;;;10.88;9.00;;;11.60;99.90;;;;;;5105783;28;20051;-66
2021/05/17 06:52:46;;;;;;;10.30;8.18;;;11.60;99.90;;;;;;5097634;28;20659;-66
2021/05/17 06:55:23;;;;;;;9.05;8.07;;;11.70;99.90;;;;;;5104826;28;20712;-66
2021/05/17 07:00:32;;;;;;;11.30;9.18;;;11.80;99.90;;;;;;5100115;28;20059;-65
2021/05/17 07:03:05;;;;;;;11.25;9.38;;;11.80;99.90;;;;;;5099502;28;20043;-66
2021/05/17 07:05:32;;;;;;;14.43;10.43;;;11.90;99.90;;;;;;5100832;28;20032;-66
2021/05/17 07:13:13;;;;;;;16.98;12.52;;;12.00;99.90;;;;;;5105020;22;20059;-78
2021/05/17 07:15:39;;;;;;;13.35;11.52;;;12.20;99.90;;;;;;5067751;28;20049;-78
2021/05/17 07:18:05;;;;;;;13.55;11.93;;;12.20;99.90;;;;;;5068193;28;20021;-78
2021/05/17 07:23:39;;;;;;;14.93;13.30;;;12.30;99.90;;;;;;5043106;28;20051;-79
2021/05/17 07:26:16;;;;;;;13.80;12.27;;;12.50;99.90;;;;;;5079968;28;20039;-78
2021/05/17 07:28:45;;;;;;;14.13;11.82;;;12.60;99.90;;;;;;5084821;28;20055;-78
2021/05/17 07:31:11;;;;;;;13.18;10.82;;;12.80;99.90;;;;;;5087069;28;20137;-78
2021/05/17 07:33:38;;;;;;;12.80;10.88;;;12.90;99.90;;;;;;5067061;28;20050;-78
2021/05/17 07:36:05;;;;;;;15.68;11.80;;;12.80;99.90;;;;;;5095155;28;20109;-78
2021/05/17 07:42:02;;;;;;;13.55;12.10;;;12.70;99.90;;;;;;5084232;28;20472;-78
2021/05/17 07:44:30;;;;;;;17.02;13.00;;;12.80;99.90;;;;;;5088187;28;20032;-78
2021/05/17 07:46:56;;;;;;;15.10;13.13;;;12.90;99.90;;;;;;5090452;28;20028;-78
2021/05/17 07:49:34;;;;;;;15.20;11.65;;;13.10;99.90;;;;;;5085074;28;20148;-78
2021/05/17 07:52:00;;;;;;;15.95;10.98;;;13.20;99.90;;;;;;5089137;28;20036;-78
2021/05/17 07:57:36;;;;;;;13.13;10.63;;;13.20;99.90;;;;;;5085881;22;20057;-88
2021/05/17 08:02:32;;;;;;;12.38;10.05;;;13.20;99.90;;;;;;5039957;28;20566;-67
2021/05/17 08:04:58;;;;;;;11.02;8.40;;;13.40;99.90;;;;;;5043590;28;20053;-67
2021/05/17 08:07:24;;;;;;;10.80;7.65;;;13.60;99.90;;;;;;5047008;28;20037;-66
2021/05/17 08:09:51;;;;;;;11.20;7.68;;;13.70;99.90;;;;;;5021808;28;20101;-66
2021/05/17 08:12:17;;;;;;;11.48;6.97;;;13.70;99.90;;;;;;5044152;28;20085;-66
2021/05/17 08:14:43;;;;;;;8.55;6.38;;;13.60;99.90;;;;;;5044346;28;20112;-67
2021/05/17 08:17:09;;;;;;;9.02;6.50;;;13.70;99.90;;;;;;5046160;28;20132;-67
2021/05/17 08:19:35;;;;;;;7.20;5.40;;;13.60;99.90;;;;;;5048639;28;20489;-67
2021/05/17 08:22:02;;;;;;;8.13;5.90;;;13.60;99.90;;;;;;5020908;28;20055;-69
2021/05/17 08:24:28;;;;;;;7.32;5.85;;;13.60;99.40;;;;;;5045693;28;20037;-68
2021/05/17 08:26:54;;;;;;;8.50;6.60;;;13.50;99.70;;;;;;5039974;28;20040;-68
2021/05/17 08:29:20;;;;;;;9.65;6.50;;;13.50;99.90;;;;;;5048570;28;20036;-68
2021/05/17 08:31:50;;;;;;;9.65;6.68;;;13.60;99.90;;;;;;5041154;28;20045;-68
2021/05/17 08:34:17;;;;;;;9.95;6.25;;;13.70;99.90;;;;;;5046774;28;20040;-68
2021/05/17 08:36:44;;;;;;;9.38;5.50;;;14.00;99.90;;;;;;5040196;28;20083;-68
2021/05/17 08:39:10;;;;;;;6.18;4.78;;;14.30;99.90;;;;;;5041197;28;20064;-69
2021/05/17 08:41:37;;;;;;;7.15;5.32;;;14.40;99.90;;;;;;5041508;28;20118;-69
2021/05/17 08:44:06;;;;;;;5.97;4.30;;;14.40;99.50;;;;;;5041925;28;20043;-68
2021/05/17 08:46:33;;;;;;;4.60;2.97;;;14.40;99.60;;;;;;5041998;28;20040;-68
2021/05/17 08:48:59;;;;;;;5.28;3.50;;;14.40;99.30;;;;;;5047942;28;20053;-68
2021/05/17 08:51:28;;;;;;;6.15;4.15;;;14.50;99.50;;;;;;5039995;28;20513;-68
2021/05/17 08:53:58;;;;;;;4.75;3.90;;;14.60;99.60;;;;;;5046239;28;20029;-68
2021/05/17 08:56:24;;;;;;;4.72;3.67;;;14.80;99.90;;;;;;5043147;28;20049;-68
2021/05/17 08:58:59;;;;;;;4.80;3.47;;;15.00;99.70;;;;;;5046975;28;20049;-68
2021/05/17 09:01:25;;;;;;;6.55;4.10;;;15.10;99.20;;;;;;5020244;28;619219;-68
2021/05/17 09:04:02;;;;;;;6.18;3.83;;;15.20;99.50;;;;;;5042102;28;20041;-68
2021/05/17 09:06:38;;;;;;;4.70;3.95;;;15.20;98.70;;;;;;5042443;28;20039;-68
2021/05/17 09:09:05;;;;;;;4.82;3.60;;;15.20;98.00;;;;;;5039609;28;20044;-68
2021/05/17 09:11:32;;;;;;;4.88;3.67;;;15.10;97.40;;;;;;5040139;28;20045;-68
2021/05/17 09:14:25;;;;;;;4.07;3.67;;;15.00;97.70;;;;;;5041861;28;20048;-68
2021/05/17 09:16:55;;;;;;;4.70;4.18;;;14.90;97.10;;;;;;5040504;28;20479;-68
2021/05/17 09:19:22;;;;;;;6.13;3.90;;;14.70;98.20;;;;;;5038808;28;20029;-68
2021/05/17 09:21:59;;;;;;;4.60;3.33;;;14.70;98.30;;;;;;5038590;28;20051;-68
2021/05/17 09:24:39;;;;;;;4.75;3.70;;;14.60;97.30;;;;;;5035813;28;20037;-67
2021/05/17 09:27:06;;;;;;;3.60;3.20;;;14.60;98.30;;;;;;5046048;28;20056;-68
2021/05/17 09:29:48;;;;;;;5.13;3.40;;;14.60;98.50;;;;;;5042667;28;20040;-68
2021/05/17 09:32:26;;;;;;;4.80;3.60;;;14.80;98.30;;;;;;5039139;28;20480;-68
2021/05/17 09:35:08;;;;;;;3.53;2.95;;;14.80;98.00;;;;;;5042178;28;20507;-68
2021/05/17 09:38:00;;;;;;;4.55;3.22;;;15.10;98.10;;;;;;5047262;28;20040;-68
2021/05/17 09:40:31;;;;;;;3.47;2.92;;;15.50;98.30;;;;;;5045410;28;20522;-68
2021/05/17 09:43:08;;;;;;;3.67;2.75;;;15.90;99.50;;;;;;5038419;28;20491;-69
2021/05/17 09:45:37;;;;;;;3.72;2.85;;;16.00;98.00;;;;;;5041629;28;20037;-69
2021/05/17 09:48:11;;;;;;;3.40;2.45;;;16.00;98.40;;;;;;5046928;28;20380;-69
2021/05/17 09:51:08;;;;;;;3.97;2.95;;;15.90;96.20;;;;;;5046813;28;20041;-69
2021/05/17 09:53:40;;;;;;;4.43;2.90;;;15.70;96.00;;;;;;5041119;28;20041;-69
2021/05/17 09:56:16;;;;;;;3.97;2.60;;;15.60;96.40;;;;;;5044235;28;20676;-69
2021/05/17 09:58:44;;;;;;;3.03;2.40;;;15.50;96.70;;;;;;5040288;28;20049;-69
2021/05/17 10:01:25;;;;;;;4.63;2.88;;;15.30;95.70;;;;;;5046164;28;20049;-69
2021/05/17 10:03:53;;;;;;;5.13;2.92;;;15.30;96.00;;;;;;5041649;28;20049;-69
2021/05/17 10:06:22;;;;;;;3.90;2.92;;;15.30;96.60;;;;;;5044024;28;20054;-69
2021/05/17 10:08:48;;;;;;;3.63;2.72;;;15.30;96.40;;;;;;5049890;28;20493;-69
2021/05/17 10:11:15;;;;;;;3.10;2.80;;;15.20;96.30;;;;;;5044178;28;20044;-70
2021/05/17 10:13:41;;;;;;;3.22;2.58;;;15.20;96.40;;;;;;5051237;28;20609;-69
2021/05/17 10:16:09;;;;;;;3.13;1.92;;;15.20;96.20;;;;;;5044026;28;20041;-70
2021/05/17 10:18:36;;;;;;;5.28;2.90;;;15.10;95.70;;;;;;5046938;28;20041;-70
2021/05/17 10:21:09;;;;;;;3.33;2.72;;;15.00;95.60;;;;;;5024047;28;20071;-69
2021/05/17 10:23:36;;;;;;;3.65;3.10;;;14.80;96.00;;;;;;5046616;28;20037;-69
2021/05/17 10:26:14;;;;;;;3.28;2.80;;;14.70;96.40;;;;;;5041408;28;20037;-69
2021/05/17 10:28:46;;;;;;;3.33;2.60;;;14.50;96.40;;;;;;5050217;28;20033;-69
2021/05/17 10:31:17;;;;;;;3.08;2.15;;;14.40;97.10;;;;;;5044962;28;20036;-69
2021/05/17 10:33:58;;;;;;;2.50;2.10;;;14.20;97.20;;;;;;5047083;28;20723;-69
2021/05/17 10:36:59;;;;;;;2.42;1.27;;;14.10;97.40;;;;;;5041693;28;20061;-69
2021/05/17 10:39:39;;;;;;;1.75;1.45;;;14.20;97.00;;;;;;5045382;28;20041;-69
2021/05/17 10:48:12;;;;;;;2.35;1.77;;;14.60;97.60;;;;;;5048624;28;20051;-69
2021/05/17 10:50:40;;;;;;;4.10;2.58;;;15.00;98.50;;;;;;5039704;28;20124;-69
2021/05/17 10:53:06;;;;;;;3.00;2.20;;;15.50;99.30;;;;;;5048905;28;20036;-69
2021/05/17 10:55:34;;;;;;;2.97;2.20;;;16.20;99.90;;;;;;5049777;28;20416;-69
2021/05/17 11:00:35;;;;;;;3.20;2.40;;;17.50;99.90;;;;;;5043510;28;20041;-70
2021/05/17 11:03:11;;;;;;;2.90;2.08;;;17.90;98.50;;;;;;5042550;28;20038;-70
2021/05/17 11:05:39;;;;;;;3.13;2.00;;;18.40;96.70;;;;;;5040605;28;20049;-70
2021/05/17 11:08:09;;;;;;;3.70;1.95;;;19.10;98.00;;;;;;5039505;28;20056;-70
2021/05/17 11:10:38;;;;;;;4.22;2.08;;;19.50;95.50;;;;;;5036090;22;20056;-67
2021/05/17 11:13:05;;;;;;;3.13;2.10;;;19.40;94.20;;;;;;5027487;28;20040;-67
2021/05/17 11:15:48;;;;;;;1.88;1.50;;;19.20;92.80;;;;;;5038077;28;20476;-69
2021/05/17 11:18:14;;;;;;;5.83;3.90;;;18.90;90.20;;;;;;5022418;28;20040;-68
2021/05/17 11:20:49;;;;;;;2.55;1.88;;;18.50;92.40;;;;;;5034474;28;20119;-68
2021/05/17 11:23:41;;;;;;;2.60;2.03;;;18.20;91.70;;;;;;5023206;28;20048;-69
2021/05/17 11:26:12;;;;;;;2.45;1.90;;;18.10;90.60;;;;;;5026866;28;20160;-69
2021/05/17 11:31:08;;;;;;;2.70;2.17;;;17.70;92.80;;;;;;5025983;28;20058;-69
2021/05/17 11:33:46;;;;;;;2.45;2.10;;;17.70;92.80;;;;;;5024386;28;20037;-69
2021/05/17 11:36:12;;;;;;;2.45;2.25;;;18.10;93.60;;;;;;5026944;28;20044;-69
2021/05/17 11:39:07;;;;;;;2.67;1.95;;;18.40;94.20;;;;;;5028376;28;20513;-69
2021/05/17 11:41:37;;;;;;;;;;;18.60;91.90;;;;;;5027121;28;20152;-69
2021/05/17 11:44:06;;;;;;;2.25;1.50;;;18.50;90.50;;;;;;5019072;28;19925;-69
2021/05/17 11:46:37;;;;;;;2.03;1.60;;;18.20;94.00;;;;;;5045212;28;20037;-68
2021/05/17 11:49:04;;;;;;;3.33;1.90;;;18.00;92.20;;;;;;5030106;28;20037;-68
2021/05/17 11:51:30;;;;;;;1.60;1.30;;;17.70;91.00;;;;;;5034013;28;20110;-68
2021/05/17 11:53:56;;;;;;;1.60;1.50;;;17.50;90.60;;;;;;5027992;28;20060;-68
2021/05/17 11:56:45;;;;;;;2.78;1.40;;;17.20;88.90;;;;;;5033147;28;20041;-68
2021/05/17 11:59:25;;;;;;;2.25;1.52;;;17.00;88.80;;;;;;5031934;28;20044;-69
2021/05/17 12:01:58;;;;;;;1.27;0.98;;;16.80;91.70;;;;;;5028496;28;20044;-69
2021/05/17 12:04:43;;;;;;;1.40;1.10;;;16.70;91.80;;;;;;5027557;28;20076;-69
2021/05/17 12:07:11;;;;;;;10.93;2.10;;;16.70;92.30;;;;;;5030240;28;20416;-66
2021/05/17 12:09:39;;;;;;;3.40;1.50;;;16.50;93.80;;;;;;5022604;28;20404;-65
2021/05/17 12:12:05;;;;;;;10.30;2.45;;;16.10;93.60;;;;;;5021516;28;20057;-65
2021/05/17 12:14:31;;;;;;;2.80;0.90;;;15.50;94.30;;;;;;5026922;28;20034;-65
2021/05/17 12:17:06;;;;;;;1.85;0.50;;;14.90;95.00;;;;;;5034282;28;20044;-65
2021/05/17 12:19:32;;;;;;;;;;;14.50;94.90;;;;;;5024457;28;20316;-66
2021/05/17 12:22:21;;;;;;;1.85;1.23;;;14.10;94.50;;;;;;5027835;28;20003;-67
2021/05/17 12:24:46;;;;;;;3.38;1.85;;;14.00;97.10;;;;;;5013966;28;20037;-67
2021/05/17 12:27:15;;;;;;;2.65;1.55;;;13.90;98.10;;;;;;5033735;28;20061;-66
2021/05/17 12:30:00;;;;;;;2.60;1.70;;;13.90;98.30;;;;;;5032142;28;21491;-66
2021/05/17 12:32:32;;;;;;;2.92;2.33;;;13.90;98.50;;;;;;5031929;28;20359;-66
2021/05/17 12:35:12;;;;;;;2.00;1.65;;;14.00;98.90;;;;;;5020385;28;20041;-66
2021/05/17 12:37:45;;;;;;;3.83;3.08;;;13.90;99.10;;;;;;5036511;28;20103;-66
2021/05/17 12:40:22;;;;;;;3.50;2.40;;;13.90;99.10;;;;;;5026718;28;20107;-66
2021/05/17 12:43:11;;;;;;;3.88;3.40;;;13.90;99.30;;;;;;5022988;28;20045;-66
2021/05/17 12:45:47;;;;;;;6.57;3.55;;;13.80;99.40;;;;;;5020332;28;20194;-66
2021/05/17 12:48:25;;;;;;;3.75;2.30;;;13.80;99.80;;;;;;5028692;28;20037;-66
2021/05/17 12:50:56;;;;;;;3.15;2.85;;;13.70;99.70;;;;;;5020463;28;20480;-66
2021/05/17 12:53:30;;;;;;;3.28;2.72;;;13.60;99.80;;;;;;5023866;28;20048;-66
2021/05/17 12:56:01;;;;;;;4.03;2.88;;;13.60;99.80;;;;;;5022242;28;20135;-66
2021/05/17 12:58:39;;;;;;;4.43;3.78;;;13.50;99.70;;;;;;5028131;28;20481;-66
2021/05/17 13:01:21;;;;;;;4.90;3.45;;;13.50;99.80;;;;;;5027008;28;20061;-66
2021/05/17 13:03:52;;;;;;;4.40;3.88;;;13.40;99.90;;;;;;5021527;28;20172;-66
2021/05/17 13:06:27;;;;;;;7.10;4.60;;;13.40;99.90;;;;;;5022606;28;20056;-66
2021/05/17 13:08:53;;;;;;;4.63;4.15;;;13.40;99.90;;;;;;5030440;28;20049;-66
2021/05/17 13:11:41;;;;;;;6.90;4.20;;;13.50;99.90;;;;;;5025396;28;23671;-65
2021/05/17 13:14:10;;;;;;;4.18;3.80;;;13.70;99.90;;;;;;5029100;28;20036;-65
2021/05/17 13:16:58;;;;;;;5.75;4.15;;;13.90;99.90;;;;;;5020481;28;20451;-65
2021/05/17 13:19:53;;;;;;;7.10;5.68;;;14.20;99.90;;;;;;5024963;28;20477;-65
2021/05/17 13:30:47;;;;;;;2.90;2.33;;;13.90;97.10;;;;;;5029183;28;20051;-66
2021/05/17 13:33:44;;;;;;;3.13;2.67;;;13.60;97.70;;;;;;5014673;28;20038;-65
2021/05/17 13:36:13;;;;;;;4.47;2.10;;;13.20;98.30;;;;;;5021246;28;20112;-65
2021/05/17 13:38:46;;;;;;;2.25;1.70;;;13.00;98.60;;;;;;5024628;28;20079;-65
2021/05/17 13:41:13;;;;;;;3.05;2.15;;;12.80;98.40;;;;;;5022703;28;20053;-65
2021/05/17 13:43:39;;;;;;;3.15;1.50;;;12.60;98.80;;;;;;5032233;28;20460;-65
2021/05/17 13:46:08;;;;;;;4.75;1.77;;;12.40;99.00;;;;;;5033788;28;20056;-65
2021/05/17 13:48:35;;;;;;;2.75;1.77;;;12.30;99.10;;;;;;5023434;28;20033;-65
2021/05/17 13:51:00;;;;;;;4.97;2.20;;;12.30;99.20;;;;;;5026676;28;20033;-65